Flugplatz Nannhausen

Für EDRN sind keine METAR/TAF Berichte vorhanden.
Es werden die Flugwettermeldungen vom Flugplatz Frankfurt-Hahn in 15 km Entfernung angezeigt.

Bericht für EDFH

vom 23.05. um 17:50 UTC

variable Windrichtung mit 2 kt

Sichtweite 10 km oder mehr

gute Sicht, keine Wolken < 5000 ft, keine CB, keine Wettererscheinungen (CAVOK)

Temperatur 18.0°C

Taupunkt 7.0°C

Luftfeuchtigkeit 49%

Luftdruck 1017 hPa

EDFH 231750Z VRB02KT CAVOK 18/07 Q1017

Prognose für EDFH

vom 23.05. um 17:00 UTC

Zwischen 18:00 UTC und 10:00 UTC

Wind 4 kt aus 160°

Sichtweite 10 km oder mehr

keine signifikanten Wettererscheinungen

keine Wolken


Am 24.05. zwischen 10:00 und 13:00 UTC übergehend zu

Wind 5 kt aus 300°

Sichtweite 10 km oder mehr

keine signifikanten Wettererscheinungen

keine Wolken

TAF EDFH 231700Z 2318/2418 16004KT CAVOK BECMG 2410/2413 30005KT
Impressum